createdAt,value
2019-03-19T00:00:50.519Z,940.6
2019-03-19T00:01:50.252Z,940.6
2019-03-19T00:02:49.975Z,940.4
2019-03-19T00:03:49.711Z,940.5
2019-03-19T00:04:49.426Z,940.5
2019-03-19T00:05:49.735Z,940.5
2019-03-19T00:06:49.611Z,940.5
2019-03-19T00:07:49.514Z,940.4
2019-03-19T00:08:49.449Z,940.6
2019-03-19T00:09:49.573Z,940.6
2019-03-19T00:10:49.465Z,940.5
2019-03-19T00:11:49.373Z,940.6
2019-03-19T00:12:49.273Z,940.6
2019-03-19T00:13:49.206Z,940.6
2019-03-19T00:14:49.095Z,940.6
2019-03-19T00:15:49.402Z,940.6
2019-03-19T00:16:49.287Z,940.6
2019-03-19T00:17:49.181Z,940.6
2019-03-19T00:18:49.111Z,940.6
2019-03-19T00:19:49.030Z,940.6
2019-03-19T00:20:48.952Z,940.7
2019-03-19T00:21:48.846Z,940.6
2019-03-19T00:22:48.774Z,940.4
2019-03-19T00:23:48.710Z,940.6
2019-03-19T00:24:48.657Z,940.6
2019-03-19T00:26:00.787Z,940.5
2019-03-19T00:27:00.668Z,940.6
2019-03-19T00:28:00.569Z,940.7
2019-03-19T00:29:00.467Z,940.6
2019-03-19T00:30:00.569Z,940.7
2019-03-19T00:31:00.465Z,940.6
2019-03-19T00:32:00.365Z,940.6
2019-03-19T00:33:00.240Z,940.6
2019-03-19T00:34:00.173Z,940.6
2019-03-19T00:35:00.096Z,940.6
2019-03-19T00:36:00.689Z,940.5
2019-03-19T00:37:00.574Z,940.6
2019-03-19T00:38:00.471Z,940.6
2019-03-19T00:39:00.376Z,940.5
2019-03-19T00:40:00.467Z,940.5
2019-03-19T00:41:00.365Z,940.5
2019-03-19T00:42:00.268Z,940.5
2019-03-19T00:43:00.158Z,940.5
2019-03-19T00:44:00.108Z,940.5
2019-03-19T00:45:00.049Z,940.6
2019-03-19T00:46:00.577Z,940.5
2019-03-19T00:47:00.485Z,940.6
2019-03-19T00:48:00.375Z,940.6
2019-03-19T00:49:00.269Z,940.6
2019-03-19T00:50:00.335Z,940.5
2019-03-19T00:51:00.316Z,940.6
2019-03-19T00:52:00.201Z,940.6
2019-03-19T00:53:00.085Z,940.5
2019-03-19T00:53:59.972Z,940.6
2019-03-19T00:54:59.859Z,940.6
2019-03-19T00:56:11.291Z,940.6
2019-03-19T00:57:11.190Z,940.6
2019-03-19T00:58:10.941Z,940.5
2019-03-19T00:59:10.685Z,940.6
2019-03-19T01:00:10.408Z,940.6
2019-03-19T01:01:10.180Z,940.6
2019-03-19T01:02:09.901Z,940.6
2019-03-19T01:03:09.659Z,940.6
2019-03-19T01:04:09.387Z,940.7
2019-03-19T01:05:09.127Z,940.5
2019-03-19T01:06:09.527Z,940.5
2019-03-19T01:07:09.418Z,940.6
2019-03-19T01:08:09.307Z,940.6
2019-03-19T01:09:09.194Z,940.6
2019-03-19T01:10:09.102Z,940.7
2019-03-19T01:11:08.985Z,940.7
2019-03-19T01:12:09.137Z,940.6
2019-03-19T01:13:09.103Z,940.5
2019-03-19T01:14:09.000Z,940.6
2019-03-19T01:15:08.893Z,940.4
2019-03-19T01:16:09.203Z,940.6
2019-03-19T01:17:09.130Z,940.5
2019-03-19T01:18:09.017Z,940.5
2019-03-19T01:19:08.911Z,940.5
2019-03-19T01:20:08.792Z,940.6
2019-03-19T01:21:08.674Z,940.6
2019-03-19T01:22:08.585Z,940.6
2019-03-19T01:23:08.467Z,940.6
2019-03-19T01:24:08.388Z,940.6
2019-03-19T01:25:08.278Z,940.6
2019-03-19T01:26:24.659Z,940.6
2019-03-19T01:27:24.608Z,940.6
2019-03-19T01:28:24.514Z,940.5
2019-03-19T01:29:24.411Z,940.6
2019-03-19T01:30:24.311Z,940.6
2019-03-19T01:31:24.184Z,940.6
2019-03-19T01:32:24.063Z,939.3
2019-03-19T01:33:23.952Z,940.5
2019-03-19T01:34:23.882Z,940.4
2019-03-19T01:35:23.780Z,940.6
2019-03-19T01:36:24.093Z,940
2019-03-19T01:37:23.991Z,940.5
2019-03-19T01:38:23.737Z,940.6
2019-03-19T01:39:23.464Z,940.5
2019-03-19T01:40:23.187Z,940.4
2019-03-19T01:41:22.905Z,940.5
2019-03-19T01:42:22.643Z,940.5
2019-03-19T01:43:22.399Z,939.1
2019-03-19T01:44:22.126Z,940.5
2019-03-19T01:45:21.844Z,940.5
2019-03-19T01:46:22.057Z,940.5
2019-03-19T01:47:21.859Z,940.5
2019-03-19T01:48:21.607Z,940.5
2019-03-19T01:49:21.337Z,940.6
2019-03-19T01:50:21.065Z,940.5
2019-03-19T01:51:20.808Z,940.4
2019-03-19T01:52:20.530Z,940.5
2019-03-19T01:53:20.265Z,940.5
2019-03-19T01:54:19.995Z,940.4
2019-03-19T01:55:19.730Z,939.1
2019-03-19T01:56:19.864Z,940.6
2019-03-19T01:57:19.596Z,940.5
2019-03-19T01:58:19.332Z,940.6
2019-03-19T01:59:19.090Z,940.5
2019-03-19T02:00:18.831Z,940.6
2019-03-19T02:01:18.580Z,940.5
2019-03-19T02:02:18.324Z,940.3
2019-03-19T02:03:18.034Z,940.5
2019-03-19T02:04:17.751Z,940.5
2019-03-19T02:05:17.489Z,940.5
2019-03-19T02:06:17.813Z,940.5
2019-03-19T02:07:17.714Z,940.5
2019-03-19T02:08:17.591Z,940.5
2019-03-19T02:09:17.467Z,940.5
2019-03-19T02:10:17.439Z,940.5
2019-03-19T02:11:17.566Z,940.4
2019-03-19T02:12:17.478Z,940.5
2019-03-19T02:13:17.376Z,940.5
2019-03-19T02:14:17.352Z,940.5
2019-03-19T02:15:17.316Z,940.5
2019-03-19T02:16:17.664Z,940.5
2019-03-19T02:17:17.559Z,940.5
2019-03-19T02:18:17.446Z,940.6
2019-03-19T02:19:17.349Z,940.6
2019-03-19T02:20:17.261Z,940.6
2019-03-19T02:21:17.184Z,940.6
2019-03-19T02:22:17.079Z,940.7
2019-03-19T02:23:16.989Z,940.5
2019-03-19T02:24:16.894Z,940.6
2019-03-19T02:25:16.799Z,940.6
2019-03-19T02:26:18.036Z,940.6
2019-03-19T02:27:17.921Z,940.5
2019-03-19T02:28:17.810Z,940.5
2019-03-19T02:29:17.936Z,940.5
2019-03-19T02:30:18.051Z,940.5
2019-03-19T02:31:17.992Z,940.4
2019-03-19T02:32:17.952Z,940.5
2019-03-19T02:33:17.923Z,940.4
2019-03-19T02:34:17.861Z,940.5
2019-03-19T02:35:17.826Z,940.6
2019-03-19T02:36:18.290Z,940.6
2019-03-19T02:37:18.297Z,940.6
2019-03-19T02:38:18.049Z,940.5
2019-03-19T02:39:17.787Z,940.6
2019-03-19T02:40:17.624Z,940.6
2019-03-19T02:41:17.403Z,940.5
2019-03-19T02:42:17.142Z,940.6
2019-03-19T02:43:16.904Z,940.5
2019-03-19T02:44:16.895Z,940.5
2019-03-19T02:45:16.690Z,940.5
2019-03-19T02:46:17.026Z,940.5
2019-03-19T02:47:16.977Z,940.5
2019-03-19T02:48:16.898Z,939.1
2019-03-19T02:49:16.853Z,940.7
2019-03-19T02:50:16.819Z,940.5
2019-03-19T02:51:16.730Z,940.6
2019-03-19T02:52:16.752Z,940.7
2019-03-19T02:53:16.671Z,940.7
2019-03-19T02:54:16.642Z,940.7
2019-03-19T02:55:16.575Z,940.6
2019-03-19T02:56:34.312Z,940.7
2019-03-19T02:57:34.226Z,940.7
2019-03-19T02:58:33.964Z,940.7
2019-03-19T02:59:33.705Z,940.7
2019-03-19T03:00:33.459Z,940.5
2019-03-19T03:01:33.202Z,940.7
2019-03-19T03:02:32.974Z,940.6
2019-03-19T03:03:32.708Z,940.7
2019-03-19T03:04:32.442Z,940.6
2019-03-19T03:05:32.297Z,940.6
2019-03-19T03:06:32.664Z,940.6
2019-03-19T03:07:32.583Z,940.7
2019-03-19T03:08:32.510Z,940.7
2019-03-19T03:09:32.439Z,940.7
2019-03-19T03:10:32.362Z,940.6
2019-03-19T03:11:32.336Z,940.7
2019-03-19T03:12:32.280Z,940.7
2019-03-19T03:13:32.253Z,940.7
2019-03-19T03:14:32.153Z,940.7
2019-03-19T03:15:32.073Z,940.6
2019-03-19T03:16:32.440Z,940.7
2019-03-19T03:17:32.360Z,940.7
2019-03-19T03:18:32.286Z,940.7
2019-03-19T03:19:32.039Z,940.6
2019-03-19T03:20:31.806Z,940.7
2019-03-19T03:21:35.035Z,940.7
2019-03-19T03:22:34.769Z,940.6
2019-03-19T03:23:34.566Z,940.7
2019-03-19T03:24:34.316Z,940.8
2019-03-19T03:25:34.062Z,940.7
2019-03-19T03:26:49.613Z,940.3
2019-03-19T03:27:49.800Z,940.7
2019-03-19T03:28:49.791Z,940.8
2019-03-19T03:29:49.699Z,940.8
2019-03-19T03:30:49.811Z,940.8
2019-03-19T03:31:49.789Z,940.8
2019-03-19T03:32:49.776Z,940.2
2019-03-19T03:33:49.761Z,939.3
2019-03-19T03:34:49.783Z,939.2
2019-03-19T03:35:49.685Z,940.8
2019-03-19T03:36:50.055Z,940.8
2019-03-19T03:37:50.079Z,940.7
2019-03-19T03:38:49.994Z,940.7
2019-03-19T03:39:49.902Z,940.7
2019-03-19T03:40:49.824Z,940.7
2019-03-19T03:41:49.740Z,940.7
2019-03-19T03:42:49.685Z,940.8
2019-03-19T03:43:49.578Z,940.7
2019-03-19T03:44:49.550Z,940.8
2019-03-19T03:45:49.457Z,940.8
2019-03-19T03:46:49.805Z,940.7
2019-03-19T03:47:49.752Z,940.9
2019-03-19T03:48:49.521Z,940.8
2019-03-19T03:49:49.260Z,940.8
2019-03-19T03:50:49.047Z,940.7
2019-03-19T03:51:48.801Z,940.8
2019-03-19T03:52:48.636Z,940.8
2019-03-19T03:53:48.478Z,940.8
2019-03-19T03:54:48.214Z,940.8
2019-03-19T03:55:47.982Z,940.8
2019-03-19T03:57:03.618Z,940.8
2019-03-19T03:58:03.557Z,940.8
2019-03-19T03:59:03.473Z,940.8
2019-03-19T04:00:03.382Z,940.9
2019-03-19T04:01:03.342Z,940.8
2019-03-19T04:02:03.257Z,940.8
2019-03-19T04:03:03.145Z,940.7
2019-03-19T04:04:03.054Z,940.7
2019-03-19T04:05:03.020Z,940.9
2019-03-19T04:06:02.933Z,940.8
2019-03-19T04:07:03.271Z,940.8
2019-03-19T04:08:03.193Z,940.8
2019-03-19T04:09:03.099Z,940.8
2019-03-19T04:10:03.027Z,940.9
2019-03-19T04:11:02.938Z,940.8
2019-03-19T04:12:02.879Z,940.8
2019-03-19T04:13:02.815Z,940.7
2019-03-19T04:14:02.745Z,940.9
2019-03-19T04:15:02.754Z,940.9
2019-03-19T04:16:02.694Z,940.9
2019-03-19T04:17:03.058Z,940.8
2019-03-19T04:18:03.002Z,940.9
2019-03-19T04:19:02.938Z,940.8
2019-03-19T04:20:02.710Z,940.9
2019-03-19T04:21:02.456Z,940.8
2019-03-19T04:22:02.216Z,940.9
2019-03-19T04:23:01.988Z,940.9
2019-03-19T04:24:01.713Z,941
2019-03-19T04:25:01.475Z,940.9
2019-03-19T04:26:01.230Z,940.9
2019-03-19T04:27:17.028Z,940.7
2019-03-19T04:28:19.607Z,940.8
2019-03-19T04:29:19.333Z,940.9
2019-03-19T04:30:19.105Z,940.7
2019-03-19T04:31:18.870Z,940.9
2019-03-19T04:32:18.626Z,940.7
2019-03-19T04:33:18.769Z,941
2019-03-19T04:34:18.542Z,939.7
2019-03-19T04:35:18.289Z,940.9
2019-03-19T04:36:18.015Z,940.7
2019-03-19T04:37:18.357Z,940.9
2019-03-19T04:38:18.263Z,940.9
2019-03-19T04:39:18.181Z,940.9
2019-03-19T04:40:18.085Z,940.8
2019-03-19T04:41:17.993Z,940.9
2019-03-19T04:42:17.889Z,940.8
2019-03-19T04:43:17.777Z,940.9
2019-03-19T04:44:17.699Z,940.9
2019-03-19T04:45:17.667Z,940.8
2019-03-19T04:46:17.555Z,940.9
2019-03-19T04:47:17.859Z,941
2019-03-19T04:48:17.738Z,940.8
2019-03-19T04:49:17.473Z,940.9
2019-03-19T04:50:17.268Z,940.9
2019-03-19T04:51:16.993Z,940.8
2019-03-19T04:52:16.731Z,941
2019-03-19T04:53:16.474Z,941
2019-03-19T04:54:16.203Z,939.6
2019-03-19T04:55:15.993Z,941
2019-03-19T04:56:15.724Z,941.1
2019-03-19T04:57:27.973Z,941.1
2019-03-19T04:58:27.858Z,941.1
2019-03-19T04:59:27.774Z,941
2019-03-19T05:00:27.687Z,941.1
2019-03-19T05:01:27.575Z,941.1
2019-03-19T05:02:27.461Z,941
2019-03-19T05:03:27.363Z,941.1
2019-03-19T05:04:27.311Z,941.1
2019-03-19T05:05:27.201Z,941.1
2019-03-19T05:06:27.118Z,941
2019-03-19T05:07:27.433Z,941.1
2019-03-19T05:08:27.313Z,941.2
2019-03-19T05:09:27.211Z,941.1
2019-03-19T05:10:27.113Z,941.1
2019-03-19T05:11:27.011Z,941.2
2019-03-19T05:12:26.900Z,941.2
2019-03-19T05:13:26.791Z,941.2
2019-03-19T05:14:26.717Z,941.2
2019-03-19T05:15:26.683Z,941
2019-03-19T05:16:26.569Z,941
2019-03-19T05:17:26.889Z,941.2
2019-03-19T05:18:26.835Z,941.2
2019-03-19T05:19:26.771Z,941.2
2019-03-19T05:20:26.653Z,941.2
2019-03-19T05:21:26.583Z,941.2
2019-03-19T05:22:26.504Z,941.2
2019-03-19T05:23:26.382Z,941.3
2019-03-19T05:24:26.272Z,941.2
2019-03-19T05:25:26.155Z,941.3
2019-03-19T05:26:26.049Z,940.3
2019-03-19T05:27:38.230Z,941.1
2019-03-19T05:28:38.121Z,941.2
2019-03-19T05:29:38.041Z,941.3
2019-03-19T05:30:37.939Z,941.2
2019-03-19T05:31:37.831Z,941.1
2019-03-19T05:32:37.732Z,941.3
2019-03-19T05:33:37.672Z,941.3
2019-03-19T05:34:37.573Z,941.3
2019-03-19T05:35:37.479Z,941.4
2019-03-19T05:36:37.375Z,941.4
2019-03-19T05:37:37.753Z,941.4
2019-03-19T05:38:37.695Z,941.4
2019-03-19T05:39:37.423Z,941.4
2019-03-19T05:40:37.161Z,941.5
2019-03-19T05:41:36.904Z,941.5
2019-03-19T05:42:36.631Z,941.4
2019-03-19T05:43:36.359Z,941.5
2019-03-19T05:44:36.077Z,941.4
2019-03-19T05:45:35.803Z,941.5
2019-03-19T05:46:35.533Z,941.6
2019-03-19T05:47:41.359Z,941.5
2019-03-19T05:48:41.245Z,941.5
2019-03-19T05:49:41.115Z,941.6
2019-03-19T05:50:41.014Z,941.6
2019-03-19T05:51:40.913Z,941.6
2019-03-19T05:52:40.815Z,941.5
2019-03-19T05:53:40.746Z,941.5
2019-03-19T05:54:40.640Z,941.6
2019-03-19T05:55:40.564Z,941.5
2019-03-19T05:56:40.487Z,941.6
2019-03-19T05:57:51.277Z,941.7
2019-03-19T05:58:51.196Z,941.7
2019-03-19T05:59:51.105Z,941.7
2019-03-19T06:00:50.987Z,941.6
2019-03-19T06:01:50.870Z,941.7
2019-03-19T06:02:50.766Z,941.7
2019-03-19T06:03:50.655Z,941.6
2019-03-19T06:04:50.591Z,941.6
2019-03-19T06:05:50.514Z,941.7
2019-03-19T06:06:50.450Z,941.7
2019-03-19T06:07:50.771Z,941.6
2019-03-19T06:08:50.754Z,941.8
2019-03-19T06:09:50.678Z,941.7
2019-03-19T06:10:50.572Z,941.7
2019-03-19T06:11:50.476Z,941.8
2019-03-19T06:12:50.467Z,941.7
2019-03-19T06:13:50.365Z,941.7
2019-03-19T06:14:50.271Z,941.7
2019-03-19T06:15:50.173Z,941.7
2019-03-19T06:16:52.519Z,941.7
2019-03-19T06:17:52.894Z,941.7
2019-03-19T06:18:52.797Z,941.8
2019-03-19T06:19:52.705Z,941.7
2019-03-19T06:20:52.620Z,940.2
2019-03-19T06:21:52.552Z,941.9
2019-03-19T06:22:52.430Z,941.9
2019-03-19T06:23:52.304Z,941.9
2019-03-19T06:24:52.201Z,942
2019-03-19T06:25:52.115Z,942
2019-03-19T06:26:52.022Z,941.9
2019-03-19T06:28:01.763Z,941.9
2019-03-19T06:29:01.688Z,941.9
2019-03-19T06:30:01.595Z,941.9
2019-03-19T06:31:01.580Z,941.7
2019-03-19T06:32:01.471Z,941.9
2019-03-19T06:33:01.435Z,942
2019-03-19T06:34:01.354Z,941.9
2019-03-19T06:35:01.222Z,942
2019-03-19T06:36:01.105Z,941.9
2019-03-19T06:37:01.022Z,942
2019-03-19T06:38:01.355Z,942
2019-03-19T06:39:01.267Z,942.1
2019-03-19T06:40:01.151Z,942
2019-03-19T06:41:01.089Z,942
2019-03-19T06:42:01.103Z,942
2019-03-19T06:43:01.000Z,942
2019-03-19T06:44:00.899Z,942.1
2019-03-19T06:45:00.955Z,942
2019-03-19T06:46:00.851Z,942.1
2019-03-19T06:47:00.752Z,942.1
2019-03-19T06:48:01.086Z,942
2019-03-19T06:49:00.975Z,942.2
2019-03-19T06:50:00.890Z,942
2019-03-19T06:51:00.628Z,942.2
2019-03-19T06:52:00.360Z,942.2
2019-03-19T06:53:00.122Z,942.2
2019-03-19T06:53:59.861Z,942.3
2019-03-19T06:54:59.580Z,942.2
2019-03-19T06:55:59.321Z,942.2
2019-03-19T06:56:59.048Z,942.3
2019-03-19T06:58:12.132Z,942.3
2019-03-19T06:59:11.859Z,942.3
2019-03-19T07:00:11.589Z,942.3
2019-03-19T07:01:11.318Z,942.3
2019-03-19T07:02:11.076Z,942.4
2019-03-19T07:03:10.830Z,942.3
2019-03-19T07:04:10.554Z,942.3
2019-03-19T07:05:10.296Z,942.3
2019-03-19T07:06:10.020Z,940.9
2019-03-19T07:07:09.756Z,942.3
2019-03-19T07:08:10.104Z,942.3
2019-03-19T07:09:10.090Z,942.5
2019-03-19T07:10:09.992Z,942.4
2019-03-19T07:11:09.880Z,942.4
2019-03-19T07:12:09.852Z,942.4
2019-03-19T07:13:09.752Z,942.2
2019-03-19T07:14:09.657Z,942.3
2019-03-19T07:15:09.570Z,941.5
2019-03-19T07:16:09.494Z,941.7
2019-03-19T07:17:09.384Z,941.8
2019-03-19T07:18:09.733Z,942.5
2019-03-19T07:19:09.628Z,942.5
2019-03-19T07:20:09.515Z,942.4
2019-03-19T07:21:09.406Z,942.5
2019-03-19T07:22:09.294Z,942.4
2019-03-19T07:23:09.232Z,942.5
2019-03-19T07:24:09.150Z,942.5
2019-03-19T07:25:09.056Z,942.6
2019-03-19T07:26:08.966Z,942.5
2019-03-19T07:27:08.864Z,942.5
2019-03-19T07:28:09.185Z,942.6
2019-03-19T07:29:09.078Z,942.5
2019-03-19T07:30:08.978Z,942.6
2019-03-19T07:31:08.892Z,942.6
2019-03-19T07:32:08.849Z,942.4
2019-03-19T07:33:08.786Z,942.6
2019-03-19T07:34:08.674Z,942.6
2019-03-19T07:35:08.584Z,942.6
2019-03-19T07:36:08.495Z,942.5
2019-03-19T07:37:08.424Z,942.7
2019-03-19T07:38:08.774Z,942.6
2019-03-19T07:39:08.700Z,942.6
2019-03-19T07:40:08.615Z,942.6
2019-03-19T07:41:08.560Z,942.7
2019-03-19T07:42:08.454Z,942.7
2019-03-19T07:43:08.361Z,942.7
2019-03-19T07:44:08.245Z,942.6
2019-03-19T07:45:08.134Z,942.6
2019-03-19T07:46:08.075Z,942.5
2019-03-19T07:47:07.958Z,942.6
2019-03-19T07:48:08.290Z,942.6
2019-03-19T07:49:08.209Z,942.6
2019-03-19T07:50:08.118Z,942.6
2019-03-19T07:51:08.021Z,942.5
2019-03-19T07:52:07.947Z,942.6
2019-03-19T07:53:07.863Z,942.5
2019-03-19T07:54:07.754Z,942.5
2019-03-19T07:55:07.656Z,942.6
2019-03-19T07:56:07.562Z,942.6
2019-03-19T07:57:07.516Z,942.7
2019-03-19T07:58:07.851Z,942.7
2019-03-19T07:59:07.752Z,942.7
2019-03-19T08:00:07.670Z,942.6
2019-03-19T08:01:07.561Z,942.7
2019-03-19T08:02:07.451Z,942.7
2019-03-19T08:03:17.301Z,942.8
2019-03-19T08:04:17.183Z,942.7
2019-03-19T08:05:17.103Z,942.7
2019-03-19T08:06:17.023Z,942.7
2019-03-19T08:07:16.980Z,942.5
2019-03-19T08:08:17.454Z,942.8
2019-03-19T08:09:17.349Z,942.8
2019-03-19T08:10:17.088Z,942.6
2019-03-19T08:11:17.667Z,942.8
2019-03-19T08:12:17.398Z,942.7
2019-03-19T08:13:17.150Z,942.7
2019-03-19T08:14:16.899Z,942.8
2019-03-19T08:15:16.618Z,942.7
2019-03-19T08:16:28.355Z,942.8
2019-03-19T08:17:28.250Z,942.9
2019-03-19T08:18:28.554Z,942.8
2019-03-19T08:19:28.449Z,942.8
2019-03-19T08:20:28.344Z,942.8
2019-03-19T08:21:28.293Z,942.9
2019-03-19T08:22:28.231Z,942.9
2019-03-19T08:23:28.116Z,942.9
2019-03-19T08:24:28.044Z,942.8
2019-03-19T08:25:27.948Z,942.8
2019-03-19T08:26:27.855Z,942.9
2019-03-19T08:27:27.742Z,943
2019-03-19T08:28:28.071Z,942.8
2019-03-19T08:29:27.973Z,942.9
2019-03-19T08:30:27.863Z,943
2019-03-19T08:31:27.747Z,943
2019-03-19T08:32:27.632Z,943.1
2019-03-19T08:33:27.520Z,943.1
2019-03-19T08:34:27.450Z,943
2019-03-19T08:35:27.401Z,942.9
2019-03-19T08:36:27.285Z,943.1
2019-03-19T08:37:27.182Z,943.1
2019-03-19T08:38:27.504Z,943.1
2019-03-19T08:39:27.467Z,943.1
2019-03-19T08:40:27.394Z,943.1
2019-03-19T08:41:27.302Z,943.1
2019-03-19T08:42:27.208Z,943.1
2019-03-19T08:43:27.103Z,943.2
2019-03-19T08:44:28.930Z,943
2019-03-19T08:45:28.811Z,943.1
2019-03-19T08:46:28.713Z,943.2
2019-03-19T08:47:28.601Z,943.1
2019-03-19T08:48:29.013Z,943.2
2019-03-19T08:49:28.955Z,943.1
2019-03-19T08:50:28.891Z,943.1
2019-03-19T08:51:28.838Z,943
2019-03-19T08:52:28.729Z,943.2
2019-03-19T08:53:28.677Z,943.1
2019-03-19T08:54:28.560Z,942.8
2019-03-19T08:55:28.462Z,942.5
2019-03-19T08:56:28.373Z,943.1
2019-03-19T08:57:28.257Z,943.1
2019-03-19T08:58:28.571Z,943
2019-03-19T08:59:28.459Z,943.2
2019-03-19T09:00:28.394Z,943
2019-03-19T09:01:28.311Z,942.7
2019-03-19T09:02:28.217Z,943.2
2019-03-19T09:03:27.945Z,943.2
2019-03-19T09:04:27.829Z,943.2
2019-03-19T09:05:27.577Z,943.2
2019-03-19T09:06:27.311Z,943.2
2019-03-19T09:07:27.043Z,943.1
2019-03-19T09:08:27.359Z,943.3
2019-03-19T09:09:27.247Z,943.2
2019-03-19T09:10:27.183Z,943.2
2019-03-19T09:11:27.087Z,943.2
2019-03-19T09:12:26.999Z,943.2
2019-03-19T09:13:26.958Z,943.2
2019-03-19T09:14:26.855Z,943.2
2019-03-19T09:15:26.788Z,943.2
2019-03-19T09:16:26.783Z,943.3
2019-03-19T09:17:26.668Z,942.7
2019-03-19T09:18:26.999Z,943.2
2019-03-19T09:19:26.891Z,943.2
2019-03-19T09:20:26.829Z,943.2
2019-03-19T09:21:26.797Z,943.1
2019-03-19T09:22:30.723Z,943.1
2019-03-19T09:23:30.623Z,943.2
2019-03-19T09:24:30.555Z,943.2
2019-03-19T09:25:30.445Z,943.2
2019-03-19T09:26:30.330Z,943.2
2019-03-19T09:27:30.311Z,943.1
2019-03-19T09:28:30.662Z,943.2
2019-03-19T09:29:30.567Z,943.2
2019-03-19T09:30:30.437Z,943.3
2019-03-19T09:31:30.159Z,943.2
2019-03-19T09:32:29.916Z,943.2
2019-03-19T09:33:29.657Z,943.2
2019-03-19T09:34:29.384Z,943.2
2019-03-19T09:35:29.108Z,943.3
2019-03-19T09:36:28.840Z,943.2
2019-03-19T09:37:28.580Z,943.3
2019-03-19T09:38:29.615Z,943.2
2019-03-19T09:39:29.506Z,943.3
2019-03-19T09:40:29.388Z,943.3
2019-03-19T09:41:29.271Z,943.1
2019-03-19T09:42:29.170Z,943.3
2019-03-19T09:43:29.303Z,943.2
2019-03-19T09:44:29.227Z,943
2019-03-19T09:45:29.133Z,943.2
2019-03-19T09:46:29.073Z,943.2
2019-03-19T09:47:28.964Z,943.2
2019-03-19T09:48:29.309Z,943.2
2019-03-19T09:49:29.179Z,943.2
2019-03-19T09:50:29.064Z,943.2
2019-03-19T09:51:28.951Z,943.2
2019-03-19T09:52:28.895Z,943.1
2019-03-19T09:53:28.817Z,943.3
2019-03-19T09:54:28.747Z,943.1
2019-03-19T09:55:28.656Z,943.2
2019-03-19T09:56:28.564Z,943.3
2019-03-19T09:57:28.475Z,943.2
2019-03-19T09:58:28.861Z,943.2
2019-03-19T09:59:28.828Z,943.3
2019-03-19T10:00:28.761Z,943.3
2019-03-19T10:01:28.686Z,943.2
2019-03-19T10:02:28.578Z,943.3
2019-03-19T10:03:28.500Z,943.1
2019-03-19T10:04:28.403Z,943.1
2019-03-19T10:05:28.290Z,943.2
2019-03-19T10:06:28.202Z,943.3
2019-03-19T10:07:28.094Z,943.3
2019-03-19T10:08:28.404Z,943.3
2019-03-19T10:09:28.343Z,943.1
2019-03-19T10:10:28.478Z,943.3
2019-03-19T10:11:28.406Z,943.3
2019-03-19T10:12:28.287Z,943.3
2019-03-19T10:13:28.188Z,943.3
2019-03-19T10:14:28.080Z,943.3
2019-03-19T10:15:27.989Z,943.3
2019-03-19T10:16:27.886Z,943.2
2019-03-19T10:17:27.826Z,943.2
2019-03-19T10:18:28.200Z,943.1
2019-03-19T10:19:28.082Z,943.2
2019-03-19T10:20:28.010Z,943.1
2019-03-19T10:21:27.943Z,943.3
2019-03-19T10:22:27.822Z,943.3
2019-03-19T10:23:27.731Z,943
2019-03-19T10:24:27.646Z,943.4
2019-03-19T10:25:27.596Z,943.4
2019-03-19T10:26:27.506Z,943.4
2019-03-19T10:27:27.384Z,943.3
2019-03-19T10:28:27.736Z,943.3
2019-03-19T10:29:39.472Z,943.2
2019-03-19T10:30:39.390Z,943.3
2019-03-19T10:31:39.284Z,943.3
2019-03-19T10:32:39.177Z,943.4
2019-03-19T10:33:39.138Z,943.3
2019-03-19T10:34:39.021Z,943.3
2019-03-19T10:35:38.972Z,943.3
2019-03-19T10:36:38.889Z,943.3
2019-03-19T10:37:38.877Z,943.2
2019-03-19T10:38:39.308Z,943.3
2019-03-19T10:39:39.234Z,943.3
2019-03-19T10:40:39.233Z,943.3
2019-03-19T10:41:39.156Z,943.3
2019-03-19T10:42:39.076Z,943.3
2019-03-19T10:43:38.988Z,943.3
2019-03-19T10:44:38.894Z,943.4
2019-03-19T10:45:38.796Z,943.4
2019-03-19T10:46:38.744Z,941.9
2019-03-19T10:47:38.642Z,943.2
2019-03-19T10:48:38.996Z,943.3
2019-03-19T10:49:38.880Z,943.4
2019-03-19T10:50:38.770Z,942.5
2019-03-19T10:51:38.656Z,943.2
2019-03-19T10:52:38.566Z,943.2
2019-03-19T10:53:38.497Z,943.3
2019-03-19T10:54:38.410Z,943.4
2019-03-19T10:55:38.300Z,943.4
2019-03-19T10:56:39.892Z,943.4
2019-03-19T10:57:39.844Z,943.1
2019-03-19T10:58:41.712Z,943.3
2019-03-19T10:59:50.204Z,943.4
2019-03-19T11:00:50.095Z,943.3
2019-03-19T11:01:52.380Z,943.3
2019-03-19T11:02:52.288Z,943.4
2019-03-19T11:03:52.194Z,943.3
2019-03-19T11:04:52.106Z,943.3
2019-03-19T11:05:51.996Z,943.4
2019-03-19T11:06:51.900Z,943.3
2019-03-19T11:07:51.835Z,943.3
2019-03-19T11:08:52.148Z,943.3
2019-03-19T11:09:52.044Z,943.4
2019-03-19T11:10:51.936Z,943.4
2019-03-19T11:11:51.854Z,943.4
2019-03-19T11:12:51.807Z,943.3
2019-03-19T11:13:51.710Z,943.2
2019-03-19T11:14:51.593Z,943.4
2019-03-19T11:15:51.526Z,943.4
2019-03-19T11:16:51.403Z,943.4
2019-03-19T11:17:51.299Z,943.4
2019-03-19T11:18:51.690Z,943.4
2019-03-19T11:19:51.663Z,943.4
2019-03-19T11:20:51.550Z,943.3
2019-03-19T11:21:51.467Z,943.4
2019-03-19T11:22:51.381Z,943.3
2019-03-19T11:23:51.302Z,943.4
2019-03-19T11:24:51.083Z,943.4
2019-03-19T11:25:55.550Z,943.4
2019-03-19T11:26:55.281Z,943.2
2019-03-19T11:27:55.012Z,943.3
2019-03-19T11:28:55.378Z,943.3
2019-03-19T11:30:01.155Z,943.3
2019-03-19T11:31:01.050Z,943.2
2019-03-19T11:32:00.953Z,943.2
2019-03-19T11:33:00.863Z,941.9
2019-03-19T11:34:00.829Z,943.3
2019-03-19T11:35:00.819Z,943.3
2019-03-19T11:36:00.711Z,943.2
2019-03-19T11:37:00.613Z,943.2
2019-03-19T11:38:00.500Z,943.3
2019-03-19T11:39:00.842Z,943.2
2019-03-19T11:40:00.961Z,943.3
2019-03-19T11:41:00.851Z,943.3
2019-03-19T11:42:00.774Z,943.2
2019-03-19T11:43:00.714Z,943
2019-03-19T11:44:00.597Z,943.2
2019-03-19T11:45:00.487Z,943.2
2019-03-19T11:46:00.395Z,943.2
2019-03-19T11:47:00.297Z,943.3
2019-03-19T11:48:00.200Z,943.3
2019-03-19T11:49:00.533Z,943.2
2019-03-19T11:50:00.683Z,943.2
2019-03-19T11:51:00.643Z,943.2
2019-03-19T11:52:00.528Z,943.2
2019-03-19T11:53:00.419Z,943.2
2019-03-19T11:54:00.309Z,943.3
2019-03-19T11:55:00.347Z,943.2
2019-03-19T11:56:00.275Z,943.3
2019-03-19T11:57:00.156Z,943.2
2019-03-19T11:58:00.081Z,943.2
2019-03-19T11:59:00.423Z,943
2019-03-19T12:00:12.459Z,943.2
2019-03-19T12:01:12.368Z,943.2
2019-03-19T12:02:12.269Z,943.2
2019-03-19T12:03:17.459Z,943.2
2019-03-19T12:04:17.367Z,943.3
2019-03-19T12:05:17.255Z,943
2019-03-19T12:06:17.159Z,943.3
2019-03-19T12:07:17.581Z,943.3
2019-03-19T12:08:17.480Z,942.9
2019-03-19T12:09:17.853Z,943.3
2019-03-19T12:10:17.738Z,943.3
2019-03-19T12:11:17.721Z,943.2
2019-03-19T12:12:17.621Z,943.3
2019-03-19T12:13:17.500Z,943.2
2019-03-19T12:14:17.399Z,943.1
2019-03-19T12:15:17.282Z,943.2
2019-03-19T12:16:17.182Z,943.3
2019-03-19T12:17:17.119Z,943.1
2019-03-19T12:18:17.027Z,943.1
2019-03-19T12:19:17.379Z,943.2
2019-03-19T12:20:17.271Z,943.3
2019-03-19T12:21:17.185Z,943.3
2019-03-19T12:22:17.087Z,943.3
2019-03-19T12:23:17.049Z,943.2
2019-03-19T12:24:16.935Z,943.2
2019-03-19T12:25:16.839Z,943.3
2019-03-19T12:26:16.738Z,943.2
2019-03-19T12:27:16.664Z,943.1
2019-03-19T12:28:16.577Z,943.1
2019-03-19T12:29:17.317Z,943.2
2019-03-19T12:30:27.022Z,943.2
2019-03-19T12:31:26.907Z,943.2
2019-03-19T12:32:26.856Z,943.2
2019-03-19T12:33:26.748Z,943
2019-03-19T12:34:26.654Z,943.1
2019-03-19T12:35:26.544Z,943.2
2019-03-19T12:36:26.442Z,943.2
2019-03-19T12:37:26.467Z,943
2019-03-19T12:38:26.375Z,943
2019-03-19T12:39:26.684Z,943.2
2019-03-19T12:40:38.369Z,943.1
2019-03-19T12:41:38.342Z,943.1
2019-03-19T12:42:38.251Z,943.2
2019-03-19T12:43:38.000Z,943.2
2019-03-19T12:44:37.907Z,943.2
2019-03-19T12:45:37.813Z,943.2
2019-03-19T12:46:37.719Z,943.2
2019-03-19T12:47:37.467Z,943.1
2019-03-19T12:48:37.421Z,943.1
2019-03-19T12:49:37.767Z,943.1
2019-03-19T12:50:37.664Z,943.2
2019-03-19T12:51:37.569Z,943.2
2019-03-19T12:52:37.503Z,943.2
2019-03-19T12:53:37.442Z,943.2
2019-03-19T12:54:38.839Z,943.2
2019-03-19T12:55:38.729Z,943.2
2019-03-19T12:56:38.645Z,943.2
2019-03-19T12:57:38.541Z,943.2
2019-03-19T12:58:38.466Z,943.2
2019-03-19T12:59:50.841Z,943.1